Portada
METAR-TAF:

METAR-TAF

Aeroports :

Bristol, Anglaterra

latitud: 51-23N, longitud: 002-43W, altitud: 189 m

Observació

L'informe es va fer fa 30 minuts, a les 22:20 UTC
Vent 13 kt del Oest
Temperatura 8°C
Humitat 87%
Pressió 1010 hPa
Visibilitat 10 km o més
Cel cobert a una alçada de 3100 ft

METAR: EGGD 062220Z AUTO 26013KT 9999 OVC031 08/06 Q1010

Hora: 22:50 (22:50 UTC)

Pronòstic

L'informe es va fer fa 2 hores i 27 minuts, a les 20:23 UTC
Pronòstic vàlid del 06 a les 20 UTC al 07 a les 18 UTC
Vent 15 kt del Oest
Visibilitat 10 km o més
Núvols disperses a una alçada de 2000 ft
Temporalment
l' 06 a les 20 UTC al 07 a les 18 UTC
Cel ennuvolat a una alçada de 1400 ft
Evolucionant progressivament
l' 07 a les 03 UTC al 07 a les 06 UTC
Vent 8 kt del Sud/Sud-Oest
Temporalment
l' 07 a les 03 UTC al 07 a les 18 UTC
Visibilitat: 8000 m
Cel ennuvolat a una alçada de 800 ft

TAF: EGGD 062023Z 0620/0718 27015KT 9999 SCT020 TEMPO 0620/0718 BKN014 BECMG 0703/0706 20008KT TEMPO 0703/0718 8000 BKN008

Observacions i pronòstics meteorològics de més de 4000 aeroports (METAR i TAF).

Les estacions disponibles són els punts grocs i vermells al mapa.

Posi el ratolí al punt desitjat per veure el nom de l'estació.

Feu clic per veure les observacions i els pronòstics meteorològics.

Per canviar el mapa: feu clic els botons verds amb una creu de color negre per apropar; al botó verd amb un guió per allunyar la imatge; o en les fletxes verdes per a mapes adjacents.


METAR-TAF: